Home   Weather   USA   Springfield   Past weeks
Flag for USA

Past Weather in Springfield, Missouri, USA — Yesterday and Last 2 Weeks

Currently: 33 °F. Passing clouds. (Weather station: Springfield Regional Airport, USA). See more current weather

Past Weather in Springfield — Graph

°F

Springfield Temperature Yesterday

Maximum temperature yesterday: 82 °F (at 1:52 pm)
Minimum temperature yesterday: 36 °F (at 11:52 pm)
Average temperature yesterday: 65 °F

High & Low Weather Summary for the Past Weeks

 TemperatureHumidityPressure
High82 °F (Feb 27, 1:52 pm)96% (Feb 22, 7:52 am)30.45 "Hg (Feb 22, 7:52 am)
Low19 °F (Feb 17, 9:52 am)24% (Feb 20, 3:52 pm)29.34 "Hg (Feb 27, 1:52 pm)
Average47 °F58%29.96 "Hg
* Reported Feb 12 11:52 pm — Feb 27 11:52 pm, Springfield. Weather by CustomWeather, © 2024

Note: Actual official high and low records may vary slightly from our data, if they occured in-between our weather recording intervals... More about our weather records

Springfield Weather History for the Previous 24 Hours

Scroll right to see more
 ConditionsComfort  
Time TempWeatherWind HumidityBarometerVisibility
11:52 pm
Tue, Feb 27
36 °FOvercast.25 mph62%29.74 "Hg10 mi
10:52 pm42 °FMostly cloudy.25 mph60%29.66 "Hg10 mi
9:52 pm50 °FPassing clouds.23 mph54%29.57 "Hg10 mi
8:52 pm58 °FMostly cloudy.12 mph60%29.49 "Hg10 mi
8:41 pm59 °FPassing clouds.16 mph58%29.51 "Hg10 mi
8:31 pm62 °FPartly cloudy.18 mph50%29.50 "Hg10 mi
7:52 pm70 °FClear.18 mph59%29.39 "Hg10 mi
6:52 pm71 °FClear.15 mph51%29.38 "Hg10 mi
5:52 pm73 °FSunny.16 mph46%29.38 "Hg10 mi
4:52 pm77 °FSunny.17 mph33%29.36 "Hg10 mi
3:52 pm79 °FSunny.22 mph31%29.36 "Hg10 mi
2:52 pm80 °FSunny.24 mph28%29.35 "Hg10 mi
1:52 pm82 °FSunny.32 mph24%29.34 "Hg10 mi
12:52 pm81 °FSunny.22 mph29%29.37 "Hg10 mi
11:52 am75 °FSunny.21 mph33%29.41 "Hg10 mi
10:52 am73 °FSunny.17 mph36%29.44 "Hg10 mi
9:52 am72 °FSunny.14 mph38%29.42 "Hg10 mi
8:52 am70 °FSunny.17 mph46%29.43 "Hg10 mi
7:52 am64 °FSunny.9 mph61%29.42 "Hg10 mi
6:52 am61 °FSunny.13 mph65%29.42 "Hg10 mi
5:52 am60 °FClear.13 mph69%29.43 "Hg10 mi
4:52 am58 °FClear.12 mph75%29.41 "Hg10 mi
3:52 am57 °FClear.13 mph78%29.41 "Hg10 mi
2:52 am60 °FClear.13 mph72%29.42 "Hg10 mi
1:52 am61 °FClear.13 mph70%29.44 "Hg10 mi
Weather by CustomWeather, © 2024

See weather overview